sensor_id;sensor_type;location;lat;lon;timestamp;P1;durP1;ratioP1;P2;durP2;ratioP2
79414;SDS011;68864;44.972;19.612;2023-08-31T00:01:22;3.42;;;0.80;;
79414;SDS011;68864;44.972;19.612;2023-08-31T00:03:49;2.95;;;0.73;;
79414;SDS011;68864;44.972;19.612;2023-08-31T00:06:16;2.70;;;0.70;;
79414;SDS011;68864;44.972;19.612;2023-08-31T00:08:43;4.97;;;1.25;;
79414;SDS011;68864;44.972;19.612;2023-08-31T00:11:10;4.47;;;0.98;;
79414;SDS011;68864;44.972;19.612;2023-08-31T00:13:37;4.55;;;0.63;;
79414;SDS011;68864;44.972;19.612;2023-08-31T00:18:32;5.50;;;0.65;;
79414;SDS011;68864;44.972;19.612;2023-08-31T00:21:01;6.70;;;1.42;;
79414;SDS011;68864;44.972;19.612;2023-08-31T00:23:28;3.97;;;1.05;;
79414;SDS011;68864;44.972;19.612;2023-08-31T00:25:55;5.82;;;0.77;;
79414;SDS011;68864;44.972;19.612;2023-08-31T00:28:22;6.40;;;0.70;;
79414;SDS011;68864;44.972;19.612;2023-08-31T00:30:52;1.77;;;0.50;;
79414;SDS011;68864;44.972;19.612;2023-08-31T00:33:19;3.63;;;0.68;;
79414;SDS011;68864;44.972;19.612;2023-08-31T00:35:47;5.10;;;0.68;;
79414;SDS011;68864;44.972;19.612;2023-08-31T00:38:14;4.88;;;0.38;;
79414;SDS011;68864;44.972;19.612;2023-08-31T00:40:41;4.05;;;0.80;;
79414;SDS011;68864;44.972;19.612;2023-08-31T00:43:10;6.13;;;0.85;;
79414;SDS011;68864;44.972;19.612;2023-08-31T00:45:38;2.95;;;0.63;;
79414;SDS011;68864;44.972;19.612;2023-08-31T00:48:05;5.35;;;1.25;;
79414;SDS011;68864;44.972;19.612;2023-08-31T00:50:33;4.93;;;1.33;;
79414;SDS011;68864;44.972;19.612;2023-08-31T00:55:28;8.10;;;0.90;;
79414;SDS011;68864;44.972;19.612;2023-08-31T00:57:55;4.55;;;1.25;;
79414;SDS011;68864;44.972;19.612;2023-08-31T01:00:22;5.00;;;1.17;;
79414;SDS011;68864;44.972;19.612;2023-08-31T01:03:00;4.28;;;1.30;;
79414;SDS011;68864;44.972;19.612;2023-08-31T01:05:33;4.82;;;0.57;;
79414;SDS011;68864;44.972;19.612;2023-08-31T01:08:10;5.82;;;1.77;;
79414;SDS011;68864;44.972;19.612;2023-08-31T01:10:49;3.30;;;0.75;;
79414;SDS011;68864;44.972;19.612;2023-08-31T01:13:24;3.78;;;0.70;;
79414;SDS011;68864;44.972;19.612;2023-08-31T01:15:52;4.00;;;1.75;;
79414;SDS011;68864;44.972;19.612;2023-08-31T01:18:23;4.82;;;2.15;;
79414;SDS011;68864;44.972;19.612;2023-08-31T01:20:52;6.80;;;1.27;;
79414;SDS011;68864;44.972;19.612;2023-08-31T01:23:28;5.68;;;1.55;;
79414;SDS011;68864;44.972;19.612;2023-08-31T01:26:01;4.45;;;0.77;;
79414;SDS011;68864;44.972;19.612;2023-08-31T01:28:29;3.47;;;1.83;;
79414;SDS011;68864;44.972;19.612;2023-08-31T01:30:56;3.47;;;1.55;;
79414;SDS011;68864;44.972;19.612;2023-08-31T01:33:23;7.93;;;2.30;;
79414;SDS011;68864;44.972;19.612;2023-08-31T01:35:50;3.63;;;1.00;;
79414;SDS011;68864;44.972;19.612;2023-08-31T01:38:21;6.20;;;1.40;;
79414;SDS011;68864;44.972;19.612;2023-08-31T01:40:54;4.25;;;1.80;;
79414;SDS011;68864;44.972;19.612;2023-08-31T01:43:29;4.57;;;1.67;;
79414;SDS011;68864;44.972;19.612;2023-08-31T01:45:58;4.50;;;1.60;;
79414;SDS011;68864;44.972;19.612;2023-08-31T01:48:26;3.88;;;0.80;;
79414;SDS011;68864;44.972;19.612;2023-08-31T01:50:53;3.60;;;1.23;;
79414;SDS011;68864;44.972;19.612;2023-08-31T01:53:20;4.22;;;1.58;;
79414;SDS011;68864;44.972;19.612;2023-08-31T01:55:47;3.42;;;1.40;;
79414;SDS011;68864;44.972;19.612;2023-08-31T01:58:14;3.47;;;1.25;;
79414;SDS011;68864;44.972;19.612;2023-08-31T02:00:42;3.08;;;1.60;;
79414;SDS011;68864;44.972;19.612;2023-08-31T02:03:09;3.53;;;1.13;;
79414;SDS011;68864;44.972;19.612;2023-08-31T02:05:36;3.47;;;1.55;;
79414;SDS011;68864;44.972;19.612;2023-08-31T02:08:03;4.30;;;1.27;;
79414;SDS011;68864;44.972;19.612;2023-08-31T02:10:30;3.25;;;0.88;;
79414;SDS011;68864;44.972;19.612;2023-08-31T02:12:57;4.55;;;0.70;;
79414;SDS011;68864;44.972;19.612;2023-08-31T02:15:23;4.18;;;0.98;;
79414;SDS011;68864;44.972;19.612;2023-08-31T02:17:52;4.63;;;1.17;;
79414;SDS011;68864;44.972;19.612;2023-08-31T02:20:19;2.90;;;0.95;;
79414;SDS011;68864;44.972;19.612;2023-08-31T02:22:46;5.68;;;1.48;;
79414;SDS011;68864;44.972;19.612;2023-08-31T02:25:13;3.40;;;0.95;;
79414;SDS011;68864;44.972;19.612;2023-08-31T02:27:41;3.55;;;1.10;;
79414;SDS011;68864;44.972;19.612;2023-08-31T02:32:35;5.35;;;1.55;;
79414;SDS011;68864;44.972;19.612;2023-08-31T02:35:03;4.07;;;1.60;;
79414;SDS011;68864;44.972;19.612;2023-08-31T02:37:31;3.85;;;1.17;;
79414;SDS011;68864;44.972;19.612;2023-08-31T02:39:57;5.90;;;1.10;;
79414;SDS011;68864;44.972;19.612;2023-08-31T02:42:24;3.58;;;0.88;;
79414;SDS011;68864;44.972;19.612;2023-08-31T02:44:51;4.57;;;1.48;;
79414;SDS011;68864;44.972;19.612;2023-08-31T02:47:18;4.28;;;1.55;;
79414;SDS011;68864;44.972;19.612;2023-08-31T02:49:45;5.15;;;1.92;;
79414;SDS011;68864;44.972;19.612;2023-08-31T02:52:14;4.55;;;1.45;;
79414;SDS011;68864;44.972;19.612;2023-08-31T02:54:41;8.27;;;1.92;;
79414;SDS011;68864;44.972;19.612;2023-08-31T02:57:08;6.43;;;2.65;;
79414;SDS011;68864;44.972;19.612;2023-08-31T02:59:34;8.73;;;1.88;;
79414;SDS011;68864;44.972;19.612;2023-08-31T03:02:01;5.28;;;1.58;;
79414;SDS011;68864;44.972;19.612;2023-08-31T03:04:28;6.50;;;2.00;;
79414;SDS011;68864;44.972;19.612;2023-08-31T03:06:55;5.32;;;1.42;;
79414;SDS011;68864;44.972;19.612;2023-08-31T03:09:24;3.78;;;2.17;;
79414;SDS011;68864;44.972;19.612;2023-08-31T03:11:50;4.90;;;1.83;;
79414;SDS011;68864;44.972;19.612;2023-08-31T03:14:17;3.95;;;1.63;;
79414;SDS011;68864;44.972;19.612;2023-08-31T03:16:44;6.10;;;0.88;;
79414;SDS011;68864;44.972;19.612;2023-08-31T03:19:11;6.40;;;1.70;;
79414;SDS011;68864;44.972;19.612;2023-08-31T03:21:37;5.43;;;2.38;;
79414;SDS011;68864;44.972;19.612;2023-08-31T03:24:08;6.25;;;2.47;;
79414;SDS011;68864;44.972;19.612;2023-08-31T03:26:36;4.28;;;1.27;;
79414;SDS011;68864;44.972;19.612;2023-08-31T03:29:03;7.07;;;2.45;;
79414;SDS011;68864;44.972;19.612;2023-08-31T03:31:30;7.10;;;3.47;;
79414;SDS011;68864;44.972;19.612;2023-08-31T03:33:57;5.80;;;2.55;;
79414;SDS011;68864;44.972;19.612;2023-08-31T03:36:24;4.55;;;2.47;;
79414;SDS011;68864;44.972;19.612;2023-08-31T03:38:50;8.82;;;1.50;;
79414;SDS011;68864;44.972;19.612;2023-08-31T03:41:17;6.72;;;1.85;;
79414;SDS011;68864;44.972;19.612;2023-08-31T03:43:45;3.80;;;1.35;;
79414;SDS011;68864;44.972;19.612;2023-08-31T03:46:12;3.90;;;1.88;;
79414;SDS011;68864;44.972;19.612;2023-08-31T03:48:39;5.45;;;2.47;;
79414;SDS011;68864;44.972;19.612;2023-08-31T03:51:05;4.85;;;2.90;;
79414;SDS011;68864;44.972;19.612;2023-08-31T03:53:32;8.35;;;2.53;;
79414;SDS011;68864;44.972;19.612;2023-08-31T03:55:59;6.05;;;2.70;;
79414;SDS011;68864;44.972;19.612;2023-08-31T03:58:26;5.60;;;2.22;;
79414;SDS011;68864;44.972;19.612;2023-08-31T04:00:54;3.67;;;1.80;;
79414;SDS011;68864;44.972;19.612;2023-08-31T04:03:20;4.70;;;2.03;;
79414;SDS011;68864;44.972;19.612;2023-08-31T04:05:53;8.27;;;4.63;;
79414;SDS011;68864;44.972;19.612;2023-08-31T04:08:20;5.57;;;3.03;;
79414;SDS011;68864;44.972;19.612;2023-08-31T04:10:47;8.32;;;3.08;;
79414;SDS011;68864;44.972;19.612;2023-08-31T04:13:14;4.30;;;1.42;;
79414;SDS011;68864;44.972;19.612;2023-08-31T04:15:40;5.45;;;2.22;;
79414;SDS011;68864;44.972;19.612;2023-08-31T04:18:08;4.10;;;2.15;;
79414;SDS011;68864;44.972;19.612;2023-08-31T04:20:35;7.10;;;2.38;;
79414;SDS011;68864;44.972;19.612;2023-08-31T04:23:03;9.07;;;3.55;;
79414;SDS011;68864;44.972;19.612;2023-08-31T04:25:30;6.45;;;3.35;;
79414;SDS011;68864;44.972;19.612;2023-08-31T04:30:23;7.25;;;3.28;;
79414;SDS011;68864;44.972;19.612;2023-08-31T04:32:51;7.38;;;2.70;;
79414;SDS011;68864;44.972;19.612;2023-08-31T04:35:19;5.60;;;2.80;;
79414;SDS011;68864;44.972;19.612;2023-08-31T04:37:46;9.40;;;4.82;;
79414;SDS011;68864;44.972;19.612;2023-08-31T04:40:13;5.68;;;2.67;;
79414;SDS011;68864;44.972;19.612;2023-08-31T04:42:39;6.55;;;2.15;;
79414;SDS011;68864;44.972;19.612;2023-08-31T04:45:06;6.43;;;2.80;;
79414;SDS011;68864;44.972;19.612;2023-08-31T04:47:34;4.95;;;2.55;;
79414;SDS011;68864;44.972;19.612;2023-08-31T04:50:00;5.28;;;2.50;;
79414;SDS011;68864;44.972;19.612;2023-08-31T04:52:30;8.13;;;4.45;;
79414;SDS011;68864;44.972;19.612;2023-08-31T04:54:56;8.13;;;4.43;;
79414;SDS011;68864;44.972;19.612;2023-08-31T04:57:23;7.78;;;2.35;;
79414;SDS011;68864;44.972;19.612;2023-08-31T04:59:51;13.07;;;5.93;;
79414;SDS011;68864;44.972;19.612;2023-08-31T05:02:17;17.67;;;8.80;;
79414;SDS011;68864;44.972;19.612;2023-08-31T05:07:11;15.45;;;7.95;;
79414;SDS011;68864;44.972;19.612;2023-08-31T05:09:39;16.88;;;9.02;;
79414;SDS011;68864;44.972;19.612;2023-08-31T05:12:06;16.30;;;8.85;;
79414;SDS011;68864;44.972;19.612;2023-08-31T05:14:33;18.65;;;9.13;;
79414;SDS011;68864;44.972;19.612;2023-08-31T05:17:02;18.10;;;9.55;;
79414;SDS011;68864;44.972;19.612;2023-08-31T05:19:29;16.33;;;7.72;;
79414;SDS011;68864;44.972;19.612;2023-08-31T05:21:56;18.67;;;10.60;;
79414;SDS011;68864;44.972;19.612;2023-08-31T05:24:23;13.68;;;7.22;;
79414;SDS011;68864;44.972;19.612;2023-08-31T05:29:18;14.95;;;7.22;;
79414;SDS011;68864;44.972;19.612;2023-08-31T05:31:44;17.90;;;8.05;;
79414;SDS011;68864;44.972;19.612;2023-08-31T05:34:15;16.30;;;6.93;;
79414;SDS011;68864;44.972;19.612;2023-08-31T05:36:42;11.55;;;6.00;;
79414;SDS011;68864;44.972;19.612;2023-08-31T05:39:09;12.68;;;6.07;;
79414;SDS011;68864;44.972;19.612;2023-08-31T05:41:36;23.10;;;7.90;;
79414;SDS011;68864;44.972;19.612;2023-08-31T05:44:04;18.65;;;8.70;;
79414;SDS011;68864;44.972;19.612;2023-08-31T05:46:31;20.67;;;10.88;;
79414;SDS011;68864;44.972;19.612;2023-08-31T05:48:58;24.02;;;12.45;;
79414;SDS011;68864;44.972;19.612;2023-08-31T05:51:25;13.90;;;5.70;;
79414;SDS011;68864;44.972;19.612;2023-08-31T05:53:51;12.95;;;5.07;;
79414;SDS011;68864;44.972;19.612;2023-08-31T05:56:18;11.20;;;4.60;;
79414;SDS011;68864;44.972;19.612;2023-08-31T06:01:13;30.02;;;13.48;;
79414;SDS011;68864;44.972;19.612;2023-08-31T06:03:40;15.00;;;4.35;;
79414;SDS011;68864;44.972;19.612;2023-08-31T06:06:07;10.43;;;4.22;;
79414;SDS011;68864;44.972;19.612;2023-08-31T06:08:35;9.50;;;3.65;;
79414;SDS011;68864;44.972;19.612;2023-08-31T06:11:02;13.13;;;5.25;;
79414;SDS011;68864;44.972;19.612;2023-08-31T06:13:29;9.32;;;3.55;;
79414;SDS011;68864;44.972;19.612;2023-08-31T06:15:55;9.48;;;4.28;;
79414;SDS011;68864;44.972;19.612;2023-08-31T06:18:24;10.70;;;3.88;;
79414;SDS011;68864;44.972;19.612;2023-08-31T06:20:50;8.77;;;4.25;;
79414;SDS011;68864;44.972;19.612;2023-08-31T06:23:16;23.92;;;16.08;;
79414;SDS011;68864;44.972;19.612;2023-08-31T06:25:43;21.75;;;14.23;;
79414;SDS011;68864;44.972;19.612;2023-08-31T06:28:11;19.33;;;8.13;;
79414;SDS011;68864;44.972;19.612;2023-08-31T06:30:38;12.20;;;5.72;;
79414;SDS011;68864;44.972;19.612;2023-08-31T06:33:05;16.05;;;6.63;;
79414;SDS011;68864;44.972;19.612;2023-08-31T06:35:33;17.58;;;7.53;;
79414;SDS011;68864;44.972;19.612;2023-08-31T06:38:00;17.00;;;7.18;;
79414;SDS011;68864;44.972;19.612;2023-08-31T06:40:27;14.65;;;6.82;;
79414;SDS011;68864;44.972;19.612;2023-08-31T06:42:53;16.88;;;6.82;;
79414;SDS011;68864;44.972;19.612;2023-08-31T06:45:20;15.40;;;6.82;;
79414;SDS011;68864;44.972;19.612;2023-08-31T06:47:47;19.80;;;6.88;;
79414;SDS011;68864;44.972;19.612;2023-08-31T06:50:14;11.05;;;5.47;;
79414;SDS011;68864;44.972;19.612;2023-08-31T06:52:42;12.00;;;6.22;;
79414;SDS011;68864;44.972;19.612;2023-08-31T06:55:11;13.80;;;4.32;;
79414;SDS011;68864;44.972;19.612;2023-08-31T06:57:38;5.32;;;2.63;;
79414;SDS011;68864;44.972;19.612;2023-08-31T07:00:07;4.13;;;1.95;;
79414;SDS011;68864;44.972;19.612;2023-08-31T07:02:39;3.60;;;1.15;;
79414;SDS011;68864;44.972;19.612;2023-08-31T07:05:06;4.80;;;1.00;;
79414;SDS011;68864;44.972;19.612;2023-08-31T07:07:33;4.30;;;0.95;;
79414;SDS011;68864;44.972;19.612;2023-08-31T07:10:01;2.78;;;0.85;;
79414;SDS011;68864;44.972;19.612;2023-08-31T07:12:28;4.57;;;1.52;;
79414;SDS011;68864;44.972;19.612;2023-08-31T07:14:55;3.40;;;0.98;;
79414;SDS011;68864;44.972;19.612;2023-08-31T07:17:22;3.30;;;0.80;;
79414;SDS011;68864;44.972;19.612;2023-08-31T07:19:48;5.13;;;2.60;;
79414;SDS011;68864;44.972;19.612;2023-08-31T07:22:15;5.75;;;1.27;;
79414;SDS011;68864;44.972;19.612;2023-08-31T07:27:11;5.00;;;2.67;;
79414;SDS011;68864;44.972;19.612;2023-08-31T07:29:38;5.45;;;2.60;;
79414;SDS011;68864;44.972;19.612;2023-08-31T07:32:05;3.22;;;1.58;;
79414;SDS011;68864;44.972;19.612;2023-08-31T07:34:33;4.82;;;2.92;;
79414;SDS011;68864;44.972;19.612;2023-08-31T07:37:00;5.88;;;1.50;;
79414;SDS011;68864;44.972;19.612;2023-08-31T07:39:28;4.13;;;1.13;;
79414;SDS011;68864;44.972;19.612;2023-08-31T07:41:55;3.63;;;1.42;;
79414;SDS011;68864;44.972;19.612;2023-08-31T07:44:23;8.32;;;3.70;;
79414;SDS011;68864;44.972;19.612;2023-08-31T07:46:50;10.30;;;4.22;;
79414;SDS011;68864;44.972;19.612;2023-08-31T07:49:16;8.75;;;5.13;;
79414;SDS011;68864;44.972;19.612;2023-08-31T07:54:10;12.85;;;5.97;;
79414;SDS011;68864;44.972;19.612;2023-08-31T07:56:37;14.20;;;5.15;;
79414;SDS011;68864;44.972;19.612;2023-08-31T07:59:06;12.48;;;5.43;;
79414;SDS011;68864;44.972;19.612;2023-08-31T08:04:01;26.42;;;11.55;;
79414;SDS011;68864;44.972;19.612;2023-08-31T08:06:28;27.33;;;10.70;;
79414;SDS011;68864;44.972;19.612;2023-08-31T08:08:54;28.55;;;11.88;;
79414;SDS011;68864;44.972;19.612;2023-08-31T08:13:48;19.10;;;8.43;;
79414;SDS011;68864;44.972;19.612;2023-08-31T08:16:15;16.33;;;7.95;;
79414;SDS011;68864;44.972;19.612;2023-08-31T08:18:43;11.05;;;3.92;;
79414;SDS011;68864;44.972;19.612;2023-08-31T08:21:10;11.35;;;6.13;;
79414;SDS011;68864;44.972;19.612;2023-08-31T08:23:37;7.80;;;3.65;;
79414;SDS011;68864;44.972;19.612;2023-08-31T08:26:03;8.02;;;2.35;;
79414;SDS011;68864;44.972;19.612;2023-08-31T08:28:30;5.50;;;1.88;;
79414;SDS011;68864;44.972;19.612;2023-08-31T08:31:00;9.38;;;2.60;;
79414;SDS011;68864;44.972;19.612;2023-08-31T08:33:28;6.18;;;1.90;;
79414;SDS011;68864;44.972;19.612;2023-08-31T08:35:57;4.20;;;0.98;;
79414;SDS011;68864;44.972;19.612;2023-08-31T08:38:24;2.72;;;1.15;;
79414;SDS011;68864;44.972;19.612;2023-08-31T08:40:51;4.82;;;1.13;;
79414;SDS011;68864;44.972;19.612;2023-08-31T08:43:19;4.50;;;1.90;;
79414;SDS011;68864;44.972;19.612;2023-08-31T08:45:50;6.55;;;2.35;;
79414;SDS011;68864;44.972;19.612;2023-08-31T08:48:17;8.27;;;1.95;;
79414;SDS011;68864;44.972;19.612;2023-08-31T08:50:44;8.20;;;2.97;;
79414;SDS011;68864;44.972;19.612;2023-08-31T08:53:13;7.63;;;2.70;;
79414;SDS011;68864;44.972;19.612;2023-08-31T08:55:40;6.30;;;2.80;;
79414;SDS011;68864;44.972;19.612;2023-08-31T08:58:07;5.20;;;2.20;;
79414;SDS011;68864;44.972;19.612;2023-08-31T09:00:35;7.80;;;2.97;;
79414;SDS011;68864;44.972;19.612;2023-08-31T09:03:02;6.90;;;2.50;;
79414;SDS011;68864;44.972;19.612;2023-08-31T09:05:30;7.38;;;2.50;;
79414;SDS011;68864;44.972;19.612;2023-08-31T09:08:01;4.25;;;1.17;;
79414;SDS011;68864;44.972;19.612;2023-08-31T09:10:39;5.35;;;2.15;;
79414;SDS011;68864;44.972;19.612;2023-08-31T09:13:07;7.15;;;2.33;;
79414;SDS011;68864;44.972;19.612;2023-08-31T09:15:35;6.53;;;1.88;;
79414;SDS011;68864;44.972;19.612;2023-08-31T09:18:05;4.32;;;1.15;;
79414;SDS011;68864;44.972;19.612;2023-08-31T09:20:31;3.22;;;1.33;;
79414;SDS011;68864;44.972;19.612;2023-08-31T09:23:08;3.17;;;1.60;;
79414;SDS011;68864;44.972;19.612;2023-08-31T09:25:39;4.18;;;1.45;;
79414;SDS011;68864;44.972;19.612;2023-08-31T09:28:07;6.68;;;3.17;;
79414;SDS011;68864;44.972;19.612;2023-08-31T09:30:34;5.18;;;0.77;;
79414;SDS011;68864;44.972;19.612;2023-08-31T09:33:02;3.00;;;1.65;;
79414;SDS011;68864;44.972;19.612;2023-08-31T09:35:30;4.15;;;1.17;;
79414;SDS011;68864;44.972;19.612;2023-08-31T09:37:57;3.92;;;1.58;;
79414;SDS011;68864;44.972;19.612;2023-08-31T09:40:24;3.17;;;1.20;;
79414;SDS011;68864;44.972;19.612;2023-08-31T09:42:52;3.20;;;0.70;;
79414;SDS011;68864;44.972;19.612;2023-08-31T09:45:23;3.13;;;0.82;;
79414;SDS011;68864;44.972;19.612;2023-08-31T09:47:56;3.13;;;0.65;;
79414;SDS011;68864;44.972;19.612;2023-08-31T09:50:24;3.67;;;1.15;;
79414;SDS011;68864;44.972;19.612;2023-08-31T09:52:53;5.72;;;1.00;;
79414;SDS011;68864;44.972;19.612;2023-08-31T09:55:22;3.20;;;1.30;;
79414;SDS011;68864;44.972;19.612;2023-08-31T09:57:56;2.92;;;0.93;;
79414;SDS011;68864;44.972;19.612;2023-08-31T10:00:24;4.93;;;0.85;;
79414;SDS011;68864;44.972;19.612;2023-08-31T10:02:52;2.45;;;0.95;;
79414;SDS011;68864;44.972;19.612;2023-08-31T10:05:22;4.30;;;1.15;;
79414;SDS011;68864;44.972;19.612;2023-08-31T10:07:48;4.25;;;0.88;;
79414;SDS011;68864;44.972;19.612;2023-08-31T10:10:17;3.55;;;1.08;;
79414;SDS011;68864;44.972;19.612;2023-08-31T10:12:45;3.53;;;1.20;;
79414;SDS011;68864;44.972;19.612;2023-08-31T10:15:15;3.35;;;1.33;;
79414;SDS011;68864;44.972;19.612;2023-08-31T10:17:42;3.25;;;1.00;;
79414;SDS011;68864;44.972;19.612;2023-08-31T10:20:10;5.20;;;0.73;;
79414;SDS011;68864;44.972;19.612;2023-08-31T10:22:38;4.15;;;1.10;;
79414;SDS011;68864;44.972;19.612;2023-08-31T10:25:05;3.35;;;0.82;;
79414;SDS011;68864;44.972;19.612;2023-08-31T10:27:37;3.67;;;1.20;;
79414;SDS011;68864;44.972;19.612;2023-08-31T10:35:52;3.70;;;1.70;;
79414;SDS011;68864;44.972;19.612;2023-08-31T10:38:24;3.75;;;0.98;;
79414;SDS011;68864;44.972;19.612;2023-08-31T10:41:02;3.45;;;1.30;;
79414;SDS011;68864;44.972;19.612;2023-08-31T10:43:45;4.75;;;1.30;;
79414;SDS011;68864;44.972;19.612;2023-08-31T10:46:31;6.03;;;0.98;;
79414;SDS011;68864;44.972;19.612;2023-08-31T10:49:00;5.18;;;1.42;;
79414;SDS011;68864;44.972;19.612;2023-08-31T10:51:29;4.63;;;1.73;;
79414;SDS011;68864;44.972;19.612;2023-08-31T10:54:06;4.43;;;1.13;;
79414;SDS011;68864;44.972;19.612;2023-08-31T10:56:40;3.58;;;1.35;;
79414;SDS011;68864;44.972;19.612;2023-08-31T10:59:19;4.30;;;1.30;;
79414;SDS011;68864;44.972;19.612;2023-08-31T11:01:54;3.15;;;0.57;;
79414;SDS011;68864;44.972;19.612;2023-08-31T11:04:22;4.70;;;1.42;;
79414;SDS011;68864;44.972;19.612;2023-08-31T11:09:38;3.88;;;1.83;;
79414;SDS011;68864;44.972;19.612;2023-08-31T11:12:05;3.92;;;2.13;;
79414;SDS011;68864;44.972;19.612;2023-08-31T11:14:32;3.05;;;1.08;;
79414;SDS011;68864;44.972;19.612;2023-08-31T11:19:27;4.13;;;1.48;;
79414;SDS011;68864;44.972;19.612;2023-08-31T11:21:54;3.67;;;1.25;;
79414;SDS011;68864;44.972;19.612;2023-08-31T11:24:21;3.35;;;1.38;;
79414;SDS011;68864;44.972;19.612;2023-08-31T11:26:48;3.80;;;1.42;;
79414;SDS011;68864;44.972;19.612;2023-08-31T11:29:16;7.78;;;1.92;;
79414;SDS011;68864;44.972;19.612;2023-08-31T11:31:43;3.67;;;1.20;;
79414;SDS011;68864;44.972;19.612;2023-08-31T11:34:13;4.40;;;1.60;;
79414;SDS011;68864;44.972;19.612;2023-08-31T11:36:40;3.25;;;1.27;;
79414;SDS011;68864;44.972;19.612;2023-08-31T11:39:08;4.00;;;0.60;;
79414;SDS011;68864;44.972;19.612;2023-08-31T11:41:35;5.15;;;1.00;;
79414;SDS011;68864;44.972;19.612;2023-08-31T11:44:06;3.45;;;0.80;;
79414;SDS011;68864;44.972;19.612;2023-08-31T11:46:33;3.35;;;1.42;;
79414;SDS011;68864;44.972;19.612;2023-08-31T11:49:01;4.55;;;1.95;;
79414;SDS011;68864;44.972;19.612;2023-08-31T11:51:30;2.83;;;1.40;;
79414;SDS011;68864;44.972;19.612;2023-08-31T11:53:59;3.58;;;1.17;;
79414;SDS011;68864;44.972;19.612;2023-08-31T11:56:27;3.20;;;1.17;;
79414;SDS011;68864;44.972;19.612;2023-08-31T11:58:54;4.03;;;1.00;;
79414;SDS011;68864;44.972;19.612;2023-08-31T12:01:22;3.08;;;0.90;;
79414;SDS011;68864;44.972;19.612;2023-08-31T12:06:15;2.15;;;0.82;;
79414;SDS011;68864;44.972;19.612;2023-08-31T12:08:44;4.20;;;0.80;;
79414;SDS011;68864;44.972;19.612;2023-08-31T12:11:11;3.50;;;1.50;;
79414;SDS011;68864;44.972;19.612;2023-08-31T12:13:40;2.50;;;0.80;;
79414;SDS011;68864;44.972;19.612;2023-08-31T12:18:37;2.97;;;1.17;;
79414;SDS011;68864;44.972;19.612;2023-08-31T12:21:04;4.93;;;1.48;;
79414;SDS011;68864;44.972;19.612;2023-08-31T12:23:32;5.18;;;1.80;;
79414;SDS011;68864;44.972;19.612;2023-08-31T12:26:00;3.85;;;1.58;;
79414;SDS011;68864;44.972;19.612;2023-08-31T12:28:27;3.80;;;1.20;;
79414;SDS011;68864;44.972;19.612;2023-08-31T12:30:54;3.10;;;1.40;;
79414;SDS011;68864;44.972;19.612;2023-08-31T12:33:22;1.92;;;0.38;;
79414;SDS011;68864;44.972;19.612;2023-08-31T12:35:49;4.68;;;2.15;;
79414;SDS011;68864;44.972;19.612;2023-08-31T12:38:16;5.13;;;2.55;;
79414;SDS011;68864;44.972;19.612;2023-08-31T12:40:44;4.50;;;1.55;;
79414;SDS011;68864;44.972;19.612;2023-08-31T12:45:39;2.65;;;1.25;;
79414;SDS011;68864;44.972;19.612;2023-08-31T12:48:06;5.15;;;0.95;;
79414;SDS011;68864;44.972;19.612;2023-08-31T12:50:33;4.70;;;2.05;;
79414;SDS011;68864;44.972;19.612;2023-08-31T12:55:27;5.38;;;1.73;;
79414;SDS011;68864;44.972;19.612;2023-08-31T12:57:55;4.20;;;2.28;;
79414;SDS011;68864;44.972;19.612;2023-08-31T13:00:24;3.92;;;1.42;;
79414;SDS011;68864;44.972;19.612;2023-08-31T13:02:52;2.97;;;1.35;;
79414;SDS011;68864;44.972;19.612;2023-08-31T13:05:20;4.85;;;2.15;;
79414;SDS011;68864;44.972;19.612;2023-08-31T13:07:47;10.23;;;6.30;;
79414;SDS011;68864;44.972;19.612;2023-08-31T13:10:14;8.63;;;3.72;;
79414;SDS011;68864;44.972;19.612;2023-08-31T13:12:41;6.43;;;3.63;;
79414;SDS011;68864;44.972;19.612;2023-08-31T13:15:08;4.80;;;2.42;;
79414;SDS011;68864;44.972;19.612;2023-08-31T13:17:36;5.07;;;2.30;;
79414;SDS011;68864;44.972;19.612;2023-08-31T13:20:04;6.90;;;3.83;;
79414;SDS011;68864;44.972;19.612;2023-08-31T13:22:33;6.35;;;3.65;;
79414;SDS011;68864;44.972;19.612;2023-08-31T13:24:59;5.55;;;3.28;;
79414;SDS011;68864;44.972;19.612;2023-08-31T13:27:26;5.53;;;3.15;;
79414;SDS011;68864;44.972;19.612;2023-08-31T13:29:54;6.45;;;3.50;;
79414;SDS011;68864;44.972;19.612;2023-08-31T13:34:49;6.47;;;3.08;;
79414;SDS011;68864;44.972;19.612;2023-08-31T13:37:15;5.55;;;3.58;;
79414;SDS011;68864;44.972;19.612;2023-08-31T13:39:42;7.80;;;3.83;;
79414;SDS011;68864;44.972;19.612;2023-08-31T13:42:09;5.13;;;3.75;;
79414;SDS011;68864;44.972;19.612;2023-08-31T13:44:36;8.13;;;4.55;;
79414;SDS011;68864;44.972;19.612;2023-08-31T13:47:03;10.32;;;5.57;;
79414;SDS011;68864;44.972;19.612;2023-08-31T13:49:31;10.30;;;5.88;;
79414;SDS011;68864;44.972;19.612;2023-08-31T13:54:27;8.27;;;6.68;;
79414;SDS011;68864;44.972;19.612;2023-08-31T13:56:54;7.20;;;5.38;;
79414;SDS011;68864;44.972;19.612;2023-08-31T13:59:21;5.90;;;4.65;;
79414;SDS011;68864;44.972;19.612;2023-08-31T14:01:48;6.97;;;4.35;;
79414;SDS011;68864;44.972;19.612;2023-08-31T14:06:41;6.60;;;4.88;;
79414;SDS011;68864;44.972;19.612;2023-08-31T14:11:35;6.47;;;4.20;;
79414;SDS011;68864;44.972;19.612;2023-08-31T14:14:02;7.30;;;4.15;;
79414;SDS011;68864;44.972;19.612;2023-08-31T14:16:31;6.25;;;4.32;;
79414;SDS011;68864;44.972;19.612;2023-08-31T14:18:58;10.27;;;6.28;;
79414;SDS011;68864;44.972;19.612;2023-08-31T14:23:51;11.05;;;5.70;;
79414;SDS011;68864;44.972;19.612;2023-08-31T14:26:22;6.38;;;4.55;;
79414;SDS011;68864;44.972;19.612;2023-08-31T14:28:49;6.63;;;5.50;;
79414;SDS011;68864;44.972;19.612;2023-08-31T14:31:16;9.85;;;5.88;;
79414;SDS011;68864;44.972;19.612;2023-08-31T14:33:43;6.47;;;5.22;;
79414;SDS011;68864;44.972;19.612;2023-08-31T14:36:11;8.05;;;3.95;;
79414;SDS011;68864;44.972;19.612;2023-08-31T14:38:39;4.55;;;2.50;;
79414;SDS011;68864;44.972;19.612;2023-08-31T14:43:34;4.28;;;3.22;;
79414;SDS011;68864;44.972;19.612;2023-08-31T14:46:00;4.90;;;3.28;;
79414;SDS011;68864;44.972;19.612;2023-08-31T14:48:29;8.30;;;3.25;;
79414;SDS011;68864;44.972;19.612;2023-08-31T14:50:56;4.93;;;2.70;;
79414;SDS011;68864;44.972;19.612;2023-08-31T14:53:23;5.32;;;2.90;;
79414;SDS011;68864;44.972;19.612;2023-08-31T14:55:50;4.78;;;3.35;;
79414;SDS011;68864;44.972;19.612;2023-08-31T14:58:17;5.53;;;1.90;;
79414;SDS011;68864;44.972;19.612;2023-08-31T15:00:45;3.72;;;1.77;;
79414;SDS011;68864;44.972;19.612;2023-08-31T15:03:12;3.90;;;2.35;;
79414;SDS011;68864;44.972;19.612;2023-08-31T15:05:39;3.08;;;1.83;;
79414;SDS011;68864;44.972;19.612;2023-08-31T15:08:07;3.28;;;1.30;;
79414;SDS011;68864;44.972;19.612;2023-08-31T15:10:37;3.83;;;2.22;;
79414;SDS011;68864;44.972;19.612;2023-08-31T15:13:04;3.35;;;1.10;;
79414;SDS011;68864;44.972;19.612;2023-08-31T15:15:31;3.85;;;1.58;;
79414;SDS011;68864;44.972;19.612;2023-08-31T15:17:59;3.72;;;1.17;;
79414;SDS011;68864;44.972;19.612;2023-08-31T15:20:26;3.75;;;1.80;;
79414;SDS011;68864;44.972;19.612;2023-08-31T15:22:53;2.63;;;1.52;;
79414;SDS011;68864;44.972;19.612;2023-08-31T15:25:20;3.03;;;1.38;;
79414;SDS011;68864;44.972;19.612;2023-08-31T15:27:47;2.78;;;0.85;;
79414;SDS011;68864;44.972;19.612;2023-08-31T15:30:14;3.00;;;1.42;;
79414;SDS011;68864;44.972;19.612;2023-08-31T15:32:41;7.78;;;1.58;;
79414;SDS011;68864;44.972;19.612;2023-08-31T15:35:09;3.10;;;1.00;;
79414;SDS011;68864;44.972;19.612;2023-08-31T15:37:36;1.63;;;0.30;;